MMDO/DGO METAR and TAF weather

Enter ICAO airport designator
Station Type Date Time Source
MMDO METAR 2020/01/24 20:45 UTC NOAA

MMDO 242045Z 15004KT 12SM BKN200 19/M05 A3012 RMK SLP109 57037 991 8/008


Station Type Date Time Source
MMDO Decoded METAR 2020/01/24 20:45 UTC NOAA

Durango Airport, Mexico (MMDO) 24-08N 104-32W
Jan 24, 2020 - 03:45 PM EST / 2020.01.24 2045 UTC
Wind: from the SSE (150 degrees) at 5 MPH (4 KT):0
Visibility: 12 mile(s):0
Sky conditions: mostly cloudy
Temperature: 66 F (19 C)
Dew Point: 23 F (-5 C)
Relative Humidity: 19%
Pressure (altimeter): 30.12 in. Hg (1019 hPa)
Pressure tendency: 0.11 inches (3.7 hPa) lower than three hours ago
ob: MMDO 242045Z 15004KT 12SM BKN200 19/M05 A3012 RMK SLP109 57037 991 8/008
cycle: 21

Station Type Date Time Source
MMDO TAF 2020/01/24 18:45 UTC NOAA

TAF MMDO 241638Z 2418/2518 20010KT P6SM SKC
FM250600 00000KT P6SM BKN080 OVC200
TEMPO 2512/2516 BKN020

Example: see airport list